Terminal Aerodrome Forecast
Issued by NWS Grand Forks, ND

Home | Current Version | Previous Version | Text Only | Print | Product List | Glossary Off
Versions: 1 2 3 4 5 6 7 8 9 10 11 12

000
FTUS43 KFGF 182300
TAFGFK
TAF
KGFK 182322Z 1900/1924 19013KT P6SM OVC013
     FM190200 18011KT P6SM FEW020 BKN200
     FM191600 33011KT P6SM BKN200=

USA.gov is the U.S. government's official web portal to all federal, state and local government web resources and services.